Time;durP1;ratioP1;P1;durP2;ratioP2;P2;SDS_P1;SDS_P2;PMS_P1;PMS_P2;Temp;Humidity;BMP_temperature;BMP_pressure;BME280_temperature;BME280_humidity;BME280_pressure;Samples;Min_cycle;Max_cycle;Signal;HPM_P1;HPM_P2
2022/01/17 00:01:43;;;;;;;31.55;14.32;;;0.60;99.90;;;;;;20841138;22;20041;-77
2022/01/17 00:11:48;;;;;;;38.33;14.93;;;0.70;99.90;;;;;;20816981;28;20797;-77
2022/01/17 00:21:49;;;;;;;37.83;15.35;;;0.60;99.90;;;;;;20816464;28;20096;-76
2022/01/17 00:31:50;;;;;;;36.47;15.40;;;0.60;99.90;;;;;;20801712;28;20105;-77
2022/01/17 00:41:51;;;;;;;37.42;15.85;;;0.80;99.90;;;;;;20708267;28;20105;-77
2022/01/17 00:51:52;;;;;;;34.70;14.57;;;0.80;99.90;;;;;;20712703;28;20045;-77
2022/01/17 01:01:53;;;;;;;40.70;15.60;;;0.90;99.90;;;;;;20751451;28;20029;-76
2022/01/17 01:11:54;;;;;;;64.57;23.48;;;0.90;99.90;;;;;;20751091;28;20449;-76
2022/01/17 01:27:38;;;;;;;42.33;18.20;;;0.80;99.90;;;;;;20750034;28;20676;-77
2022/01/17 01:32:23;;;;;;;41.58;17.55;;;0.80;99.90;;;;;;20749205;28;20049;-77
2022/01/17 01:42:25;;;;;;;36.85;17.05;;;0.80;99.90;;;;;;20748506;28;20038;-77
2022/01/17 01:52:26;;;;;;;39.97;17.73;;;0.90;99.90;;;;;;20747740;28;20546;-77
2022/01/17 02:02:27;;;;;;;42.20;18.27;;;0.90;99.90;;;;;;20745276;28;20038;-77
2022/01/17 02:12:29;;;;;;;45.13;18.08;;;0.90;99.90;;;;;;20746626;28;20109;-77
2022/01/17 02:22:30;;;;;;;46.10;19.33;;;0.90;99.90;;;;;;20745825;28;20492;-77
2022/01/17 02:32:31;;;;;;;46.63;18.48;;;0.80;99.90;;;;;;20745032;28;20049;-76
2022/01/17 02:42:34;;;;;;;39.10;18.42;;;0.90;99.90;;;;;;20744136;28;20034;-76
2022/01/17 02:52:35;;;;;;;44.63;17.85;;;0.90;99.90;;;;;;20742741;28;20041;-76
2022/01/17 03:02:36;;;;;;;45.20;19.17;;;0.90;99.90;;;;;;20743056;28;20034;-77
2022/01/17 03:12:37;;;;;;;34.90;16.90;;;0.90;99.90;;;;;;20750991;28;20070;-76
2022/01/17 03:22:39;;;;;;;40.38;17.25;;;1.00;99.90;;;;;;20759267;28;20397;-76
2022/01/17 03:32:40;;;;;;;44.20;18.50;;;1.00;99.90;;;;;;20758393;28;20061;-76
2022/01/17 03:42:41;;;;;;;41.65;17.95;;;1.00;99.90;;;;;;20757719;28;20034;-76
2022/01/17 03:52:42;;;;;;;38.20;17.85;;;1.00;99.90;;;;;;20757098;28;20037;-76
2022/01/17 04:02:43;;;;;;;39.05;16.83;;;1.00;99.90;;;;;;20756070;28;20516;-76
2022/01/17 04:12:44;;;;;;;38.53;15.07;;;1.10;99.90;;;;;;20755534;28;20670;-76
2022/01/17 04:22:51;;;;;;;28.58;13.27;;;1.20;99.90;;;;;;20754985;28;20026;-76
2022/01/17 04:32:53;;;;;;;24.38;11.88;;;1.40;99.90;;;;;;20754082;28;20037;-76
2022/01/17 04:42:56;;;;;;;25.00;10.55;;;1.40;99.90;;;;;;20753274;28;20030;-76
2022/01/17 04:53:00;;;;;;;29.08;12.63;;;1.50;99.90;;;;;;20751162;28;20040;-76
2022/01/17 05:03:00;;;;;;;32.58;12.93;;;1.60;99.90;;;;;;20751547;28;20022;-76
2022/01/17 05:13:02;;;;;;;28.30;12.05;;;1.50;99.90;;;;;;20749653;28;20040;-76
2022/01/17 05:23:03;;;;;;;27.48;11.18;;;1.50;99.90;;;;;;20750212;28;20052;-76
2022/01/17 05:33:04;;;;;;;35.88;12.63;;;1.50;99.90;;;;;;20727817;28;20456;-77
2022/01/17 05:43:05;;;;;;;29.65;13.00;;;1.30;99.90;;;;;;20690875;28;20068;-76
2022/01/17 05:53:05;;;;;;;23.55;11.50;;;1.20;99.90;;;;;;20747803;28;20415;-77
2022/01/17 06:03:06;;;;;;;26.55;11.02;;;1.30;99.90;;;;;;20811855;23;20044;-72
2022/01/17 06:13:07;;;;;;;24.70;11.68;;;1.20;99.90;;;;;;20810662;28;20039;-73
2022/01/17 06:23:08;;;;;;;31.92;13.20;;;1.00;99.90;;;;;;20827353;28;20029;-73
2022/01/17 06:33:09;;;;;;;23.13;10.98;;;0.90;99.90;;;;;;20826836;28;20060;-73
2022/01/17 06:43:10;;;;;;;27.02;10.98;;;1.00;99.90;;;;;;20824886;28;20159;-73
2022/01/17 06:53:11;;;;;;;22.23;10.85;;;1.00;99.90;;;;;;20825641;28;20040;-73
2022/01/17 07:03:12;;;;;;;21.55;10.15;;;1.00;99.90;;;;;;20807443;28;20034;-73
2022/01/17 07:13:13;;;;;;;23.77;10.07;;;0.90;99.90;;;;;;20825347;28;20065;-73
2022/01/17 07:23:14;;;;;;;33.35;15.07;;;0.90;99.90;;;;;;20824163;28;20057;-73
2022/01/17 07:33:15;;;;;;;28.67;11.38;;;1.00;99.90;;;;;;20824000;28;20395;-73
2022/01/17 07:43:16;;;;;;;24.67;10.68;;;0.90;99.90;;;;;;20823615;28;20029;-73
2022/01/17 07:53:17;;;;;;;24.88;10.82;;;0.50;99.90;;;;;;20823382;28;20057;-73
2022/01/17 08:03:17;;;;;;;26.10;10.63;;;0.60;99.90;;;;;;20837296;28;20094;-73
2022/01/17 08:13:18;;;;;;;20.50;10.40;;;0.80;99.90;;;;;;20837517;28;20124;-73
2022/01/17 08:23:19;;;;;;;38.78;14.15;;;2.60;99.90;;;;;;20834280;28;20128;-73
2022/01/17 08:33:22;;;;;;;26.42;12.30;;;4.40;99.90;;;;;;20837364;28;20099;-73
2022/01/17 08:43:22;;;;;;;29.65;14.43;;;3.50;99.90;;;;;;20815731;28;20590;-73
2022/01/17 08:53:23;;;;;;;;;;;3.10;99.90;;;;;;20814980;28;20121;-73
2022/01/17 09:03:24;;;;;;;33.37;14.47;;;2.90;99.90;;;;;;20813817;28;19924;-73
2022/01/17 09:13:25;;;;;;;;;;;3.10;99.90;;;;;;20815966;28;20279;-73
2022/01/17 09:23:26;;;;;;;29.63;14.07;;;3.00;99.90;;;;;;20843453;28;19916;-73
2022/01/17 09:33:27;;;;;;;;;;;3.00;99.90;;;;;;20796590;28;20037;-73
2022/01/17 09:43:28;;;;;;;27.50;13.77;;;2.90;99.90;;;;;;20810593;28;19943;-73
2022/01/17 09:53:34;;;;;;;34.22;12.95;;;2.70;99.90;;;;;;20810371;28;20034;-73
2022/01/17 10:03:37;;;;;;;29.85;13.35;;;2.80;99.90;;;;;;20808733;28;20041;-73
2022/01/17 10:13:43;;;;;;;27.63;13.07;;;3.00;99.90;;;;;;20808733;28;20049;-73
2022/01/17 10:44:37;;;;;;;22.83;10.65;;;3.40;99.90;;;;;;20806729;28;20029;-73
2022/01/17 10:54:37;;;;;;;22.10;10.10;;;3.50;99.90;;;;;;20806001;28;20029;-72
2022/01/17 11:04:38;;;;;;;;;;;3.60;99.90;;;;;;20805461;28;20036;-73
2022/01/17 11:14:41;;;;;;;19.42;8.23;;;3.90;99.90;;;;;;20804994;28;20422;-72
2022/01/17 11:24:42;;;;;;;18.35;9.25;;;4.00;99.90;;;;;;20804727;28;20557;-72
2022/01/17 11:34:42;;;;;;;;;;;4.00;99.90;;;;;;20815972;28;20041;-73
2022/01/17 11:44:43;;;;;;;17.63;8.70;;;4.10;99.90;;;;;;20884563;28;20418;-72
2022/01/17 11:54:44;;;;;;;19.73;8.27;;;4.30;99.90;;;;;;20847683;28;20025;-73
2022/01/17 12:05:06;;;;;;;12.98;7.07;;;5.10;99.90;;;;;;20851092;22;20041;-76
2022/01/17 12:15:17;;;;;;;10.80;6.17;;;6.40;99.90;;;;;;20853979;28;20116;-76
2022/01/17 12:25:31;;;;;;;12.37;4.20;;;7.00;99.90;;;;;;20915908;28;20041;-77
2022/01/17 12:35:33;;;;;;;7.50;3.60;;;7.70;99.90;;;;;;20900668;28;20170;-77
2022/01/17 12:45:48;;;;;;;6.13;3.58;;;8.90;99.90;;;;;;20916091;28;20033;-77
2022/01/17 12:55:56;;;;;;;6.13;3.38;;;8.30;99.90;;;;;;20916863;28;20040;-77
2022/01/17 13:05:59;;;;;;;8.35;3.38;;;7.00;99.90;;;;;;20915924;28;20040;-76
2022/01/17 13:16:04;;;;;;;7.47;3.60;;;6.70;99.90;;;;;;20915332;28;20600;-77
2022/01/17 13:26:09;;;;;;;15.07;3.95;;;6.40;99.90;;;;;;20914383;28;20055;-76
2022/01/17 13:36:10;;;;;;;6.72;3.72;;;6.50;99.90;;;;;;20862649;28;20508;-76
2022/01/17 13:46:11;;;;;;;5.97;3.27;;;6.30;99.90;;;;;;20748367;28;20047;-76
2022/01/17 13:56:13;;;;;;;7.33;3.53;;;6.10;99.90;;;;;;20730055;28;20105;-76
2022/01/17 14:06:15;;;;;;;6.72;4.18;;;6.10;99.90;;;;;;20729744;28;20113;-76
2022/01/17 14:16:33;;;;;;;7.78;4.03;;;5.90;99.90;;;;;;20746480;28;20033;-76
2022/01/17 14:26:36;;;;;;;7.88;4.03;;;5.90;99.90;;;;;;20745808;28;20492;-77
2022/01/17 14:36:38;;;;;;;7.68;4.05;;;5.90;99.90;;;;;;20727988;28;20041;-77
2022/01/17 14:46:59;;;;;;;9.63;3.70;;;6.00;99.90;;;;;;20744651;28;20030;-77
2022/01/17 15:07:20;;;;;;;6.05;3.20;;;6.10;99.90;;;;;;20742718;28;20046;-77
2022/01/17 15:17:27;;;;;;;7.93;3.10;;;6.00;99.90;;;;;;20743285;28;20034;-77
2022/01/17 15:27:28;;;;;;;4.93;2.88;;;5.70;99.90;;;;;;20737111;28;20083;-78
2022/01/17 15:37:29;;;;;;;7.63;4.03;;;5.50;99.90;;;;;;20743163;28;20400;-77
2022/01/17 15:47:30;;;;;;;8.27;3.40;;;5.30;99.90;;;;;;20707908;28;20044;-77
2022/01/17 15:57:31;;;;;;;7.27;3.03;;;5.20;99.90;;;;;;20741459;28;20480;-77
2022/01/17 16:07:32;;;;;;;8.18;3.58;;;4.80;99.90;;;;;;20748372;28;20296;-77
2022/01/17 16:17:33;;;;;;;5.30;3.53;;;4.30;99.90;;;;;;20748748;28;20530;-77
2022/01/17 16:27:34;;;;;;;11.68;5.10;;;3.90;99.90;;;;;;20755157;28;20109;-77
2022/01/17 16:37:35;;;;;;;11.65;4.63;;;3.30;99.90;;;;;;20754294;28;20026;-75
2022/01/17 16:47:36;;;;;;;;;;;3.30;99.90;;;;;;20753873;28;20113;-76
2022/01/17 16:57:36;;;;;;;7.85;4.28;;;3.30;99.90;;;;;;20752703;28;20438;-76
2022/01/17 17:07:38;;;;;;;7.38;3.50;;;3.50;99.90;;;;;;20762488;28;20099;-76
2022/01/17 17:17:39;;;;;;;7.68;4.28;;;3.50;99.90;;;;;;20832295;28;20036;-76
2022/01/17 17:27:40;;;;;;;;;;;3.60;99.90;;;;;;20814307;28;20025;-75
2022/01/17 17:37:40;;;;;;;14.27;8.07;;;3.70;99.90;;;;;;20764852;28;19952;-75
2022/01/17 17:47:41;;;;;;;;;;;3.60;99.90;;;;;;20731286;28;20038;-76
2022/01/17 17:57:42;;;;;;;17.73;8.37;;;3.40;99.90;;;;;;20747957;28;19910;-77
2022/01/17 18:07:43;;;;;;;;;;;2.90;99.90;;;;;;20727738;23;20313;-74
2022/01/17 18:17:45;;;;;;;12.68;7.35;;;2.70;99.90;;;;;;20664839;28;19914;-74
2022/01/17 18:27:46;;;;;;;16.38;7.22;;;3.00;99.90;;;;;;20658126;28;20113;-74
2022/01/17 18:37:48;;;;;;;14.07;7.15;;;2.50;99.90;;;;;;20655000;28;20065;-74
2022/01/17 18:47:49;;;;;;;25.90;7.93;;;3.00;99.90;;;;;;20581576;28;20042;-74
2022/01/17 18:57:50;;;;;;;17.85;9.73;;;2.80;99.90;;;;;;20615982;28;20045;-74
2022/01/17 19:07:51;;;;;;;20.77;9.30;;;2.90;99.90;;;;;;20650153;28;20381;-74
2022/01/17 19:28:13;;;;;;;14.48;7.20;;;2.20;99.90;;;;;;20615154;28;20097;-74
2022/01/17 19:38:14;;;;;;;17.48;7.43;;;1.80;99.90;;;;;;20661039;28;20045;-74
2022/01/17 19:48:15;;;;;;;17.17;7.47;;;1.40;99.90;;;;;;20622688;28;20043;-74
2022/01/17 19:58:16;;;;;;;16.95;8.05;;;1.30;99.90;;;;;;20593005;28;20089;-74
2022/01/17 20:08:18;;;;;;;19.13;9.50;;;0.90;99.90;;;;;;20594625;28;20037;-73
2022/01/17 20:18:20;;;;;;;8.07;4.22;;;0.90;99.90;;;;;;20594123;28;20408;-74
2022/01/17 20:28:21;;;;;;;9.27;4.88;;;1.10;99.90;;;;;;20592240;28;20031;-74
2022/01/17 20:38:21;;;;;;;9.02;4.57;;;1.20;99.90;;;;;;20592401;28;20110;-74
2022/01/17 20:48:22;;;;;;;8.15;4.38;;;1.30;99.90;;;;;;20591537;28;20026;-75
2022/01/17 20:58:24;;;;;;;27.67;11.65;;;1.40;99.90;;;;;;20589547;28;20058;-75
2022/01/17 21:08:25;;;;;;;5.65;3.28;;;1.50;99.90;;;;;;20609823;28;20038;-74
2022/01/17 21:18:26;;;;;;;8.18;3.58;;;1.20;99.90;;;;;;20600296;28;20038;-74
2022/01/17 21:28:27;;;;;;;11.68;6.68;;;1.30;99.90;;;;;;20588470;28;20070;-74
2022/01/17 21:38:28;;;;;;;5.60;3.30;;;1.60;99.90;;;;;;20586594;28;20035;-74
2022/01/17 21:48:29;;;;;;;6.13;3.92;;;1.60;99.90;;;;;;20587145;28;20027;-74
2022/01/17 21:58:30;;;;;;;11.48;4.90;;;1.30;99.90;;;;;;20586298;28;20375;-74
2022/01/17 22:08:31;;;;;;;10.07;5.78;;;1.50;99.90;;;;;;20630338;28;20088;-73
2022/01/17 22:18:33;;;;;;;10.40;4.97;;;1.50;99.90;;;;;;20672284;28;20049;-74
2022/01/17 22:28:34;;;;;;;13.70;6.45;;;1.40;99.90;;;;;;20721149;28;20034;-74
2022/01/17 22:38:36;;;;;;;8.93;4.22;;;1.30;99.90;;;;;;20643536;28;20068;-73
2022/01/17 22:48:37;;;;;;;8.32;4.55;;;0.70;99.90;;;;;;20624385;28;20582;-74
2022/01/17 22:58:38;;;;;;;11.88;5.60;;;0.80;99.90;;;;;;20656000;28;20036;-74
2022/01/17 23:08:39;;;;;;;9.45;3.85;;;0.90;99.90;;;;;;20652121;28;20085;-74
2022/01/17 23:18:48;;;;;;;7.38;3.90;;;0.90;99.90;;;;;;20641734;28;20170;-74
2022/01/17 23:28:51;;;;;;;9.18;4.88;;;0.70;99.90;;;;;;20647820;28;20049;-75
2022/01/17 23:38:53;;;;;;;11.98;6.95;;;0.90;99.90;;;;;;20657300;28;20030;-74
2022/01/17 23:48:54;;;;;;;9.38;5.65;;;1.10;99.90;;;;;;20657022;28;20030;-74
2022/01/17 23:58:59;;;;;;;10.75;5.75;;;1.00;99.90;;;;;;20661905;28;20053;-75
